sensor_id;sensor_type;location;lat;lon;timestamp;P1;durP1;ratioP1;P2;durP2;ratioP2
49626;SDS011;35527;54.616;39.786;2022-08-24T00:02:42;11.60;;;6.38;;
49626;SDS011;35527;54.616;39.786;2022-08-24T00:05:48;14.05;;;8.80;;
49626;SDS011;35527;54.616;39.786;2022-08-24T00:08:52;14.80;;;8.63;;
49626;SDS011;35527;54.616;39.786;2022-08-24T00:12:02;12.13;;;6.70;;
49626;SDS011;35527;54.616;39.786;2022-08-24T00:15:06;12.77;;;6.15;;
49626;SDS011;35527;54.616;39.786;2022-08-24T00:18:11;18.48;;;6.57;;
49626;SDS011;35527;54.616;39.786;2022-08-24T00:21:15;13.18;;;5.90;;
49626;SDS011;35527;54.616;39.786;2022-08-24T00:24:20;16.85;;;5.75;;
49626;SDS011;35527;54.616;39.786;2022-08-24T00:27:26;18.35;;;6.55;;
49626;SDS011;35527;54.616;39.786;2022-08-24T00:30:31;19.02;;;6.80;;
49626;SDS011;35527;54.616;39.786;2022-08-24T00:33:35;19.35;;;5.45;;
49626;SDS011;35527;54.616;39.786;2022-08-24T00:36:41;15.98;;;5.65;;
49626;SDS011;35527;54.616;39.786;2022-08-24T00:39:45;15.80;;;6.72;;
49626;SDS011;35527;54.616;39.786;2022-08-24T00:42:49;14.40;;;5.90;;
49626;SDS011;35527;54.616;39.786;2022-08-24T00:49:02;14.18;;;7.43;;
49626;SDS011;35527;54.616;39.786;2022-08-24T00:52:26;15.82;;;6.10;;
49626;SDS011;35527;54.616;39.786;2022-08-24T00:55:45;11.20;;;5.07;;
49626;SDS011;35527;54.616;39.786;2022-08-24T00:58:55;10.95;;;5.35;;
49626;SDS011;35527;54.616;39.786;2022-08-24T01:02:13;13.57;;;5.95;;
49626;SDS011;35527;54.616;39.786;2022-08-24T01:05:28;10.35;;;5.82;;
49626;SDS011;35527;54.616;39.786;2022-08-24T01:08:34;12.65;;;5.38;;
49626;SDS011;35527;54.616;39.786;2022-08-24T01:11:40;14.13;;;5.70;;
49626;SDS011;35527;54.616;39.786;2022-08-24T01:14:44;10.70;;;5.10;;
49626;SDS011;35527;54.616;39.786;2022-08-24T01:17:49;9.88;;;5.18;;
49626;SDS011;35527;54.616;39.786;2022-08-24T01:24:25;9.75;;;4.88;;
49626;SDS011;35527;54.616;39.786;2022-08-24T01:27:35;12.20;;;4.90;;
49626;SDS011;35527;54.616;39.786;2022-08-24T01:30:40;14.50;;;5.85;;
49626;SDS011;35527;54.616;39.786;2022-08-24T01:33:47;11.07;;;5.97;;
49626;SDS011;35527;54.616;39.786;2022-08-24T01:36:53;15.23;;;7.07;;
49626;SDS011;35527;54.616;39.786;2022-08-24T01:40:02;13.27;;;6.93;;
49626;SDS011;35527;54.616;39.786;2022-08-24T01:43:08;12.40;;;7.05;;
49626;SDS011;35527;54.616;39.786;2022-08-24T01:46:13;13.57;;;5.88;;
49626;SDS011;35527;54.616;39.786;2022-08-24T01:49:17;12.60;;;6.07;;
49626;SDS011;35527;54.616;39.786;2022-08-24T01:55:28;13.20;;;7.63;;
49626;SDS011;35527;54.616;39.786;2022-08-24T01:58:32;11.15;;;7.05;;
49626;SDS011;35527;54.616;39.786;2022-08-24T02:01:36;14.68;;;6.97;;
49626;SDS011;35527;54.616;39.786;2022-08-24T02:04:44;12.98;;;6.65;;
49626;SDS011;35527;54.616;39.786;2022-08-24T02:07:53;12.68;;;6.65;;
49626;SDS011;35527;54.616;39.786;2022-08-24T02:10:57;14.80;;;6.88;;
49626;SDS011;35527;54.616;39.786;2022-08-24T02:14:02;13.27;;;6.60;;
49626;SDS011;35527;54.616;39.786;2022-08-24T02:17:08;14.23;;;7.30;;
49626;SDS011;35527;54.616;39.786;2022-08-24T02:20:14;14.75;;;8.10;;
49626;SDS011;35527;54.616;39.786;2022-08-24T02:23:18;16.85;;;7.47;;
49626;SDS011;35527;54.616;39.786;2022-08-24T02:26:23;14.38;;;7.40;;
49626;SDS011;35527;54.616;39.786;2022-08-24T02:29:29;20.73;;;8.20;;
49626;SDS011;35527;54.616;39.786;2022-08-24T02:32:33;13.77;;;7.43;;
49626;SDS011;35527;54.616;39.786;2022-08-24T02:35:37;15.38;;;6.63;;
49626;SDS011;35527;54.616;39.786;2022-08-24T02:38:43;13.00;;;6.00;;
49626;SDS011;35527;54.616;39.786;2022-08-24T02:41:53;10.13;;;5.32;;
49626;SDS011;35527;54.616;39.786;2022-08-24T02:44:59;12.93;;;5.05;;
49626;SDS011;35527;54.616;39.786;2022-08-24T02:48:03;11.95;;;5.35;;
49626;SDS011;35527;54.616;39.786;2022-08-24T02:51:16;15.23;;;5.38;;
49626;SDS011;35527;54.616;39.786;2022-08-24T02:54:23;11.05;;;5.50;;
49626;SDS011;35527;54.616;39.786;2022-08-24T02:57:27;15.20;;;5.97;;
49626;SDS011;35527;54.616;39.786;2022-08-24T03:00:34;12.93;;;5.50;;
49626;SDS011;35527;54.616;39.786;2022-08-24T03:03:38;13.65;;;5.68;;
49626;SDS011;35527;54.616;39.786;2022-08-24T03:06:43;13.30;;;7.13;;
49626;SDS011;35527;54.616;39.786;2022-08-24T03:09:48;13.68;;;6.38;;
49626;SDS011;35527;54.616;39.786;2022-08-24T03:12:51;13.10;;;6.00;;
49626;SDS011;35527;54.616;39.786;2022-08-24T03:15:57;13.95;;;7.10;;
49626;SDS011;35527;54.616;39.786;2022-08-24T03:19:05;14.77;;;6.60;;
49626;SDS011;35527;54.616;39.786;2022-08-24T03:22:13;14.40;;;7.53;;
49626;SDS011;35527;54.616;39.786;2022-08-24T03:25:17;13.55;;;6.43;;
49626;SDS011;35527;54.616;39.786;2022-08-24T03:28:24;12.80;;;5.75;;
49626;SDS011;35527;54.616;39.786;2022-08-24T03:31:30;8.20;;;4.30;;
49626;SDS011;35527;54.616;39.786;2022-08-24T03:34:34;10.15;;;4.38;;
49626;SDS011;35527;54.616;39.786;2022-08-24T03:37:37;14.85;;;5.53;;
49626;SDS011;35527;54.616;39.786;2022-08-24T03:40:40;17.27;;;6.55;;
49626;SDS011;35527;54.616;39.786;2022-08-24T03:43:49;19.23;;;8.00;;
49626;SDS011;35527;54.616;39.786;2022-08-24T03:46:58;19.15;;;6.35;;
49626;SDS011;35527;54.616;39.786;2022-08-24T03:50:04;29.00;;;9.85;;
49626;SDS011;35527;54.616;39.786;2022-08-24T03:53:09;24.20;;;8.80;;
49626;SDS011;35527;54.616;39.786;2022-08-24T03:56:14;26.80;;;9.50;;
49626;SDS011;35527;54.616;39.786;2022-08-24T03:59:19;32.10;;;9.52;;
49626;SDS011;35527;54.616;39.786;2022-08-24T04:02:26;36.88;;;9.65;;
49626;SDS011;35527;54.616;39.786;2022-08-24T04:05:31;36.83;;;9.75;;
49626;SDS011;35527;54.616;39.786;2022-08-24T04:08:34;25.15;;;8.63;;
49626;SDS011;35527;54.616;39.786;2022-08-24T04:11:41;22.90;;;7.38;;
49626;SDS011;35527;54.616;39.786;2022-08-24T04:14:50;20.67;;;7.18;;
49626;SDS011;35527;54.616;39.786;2022-08-24T04:17:54;18.42;;;6.85;;
49626;SDS011;35527;54.616;39.786;2022-08-24T04:20:59;20.02;;;6.85;;
49626;SDS011;35527;54.616;39.786;2022-08-24T04:24:28;20.63;;;6.82;;
49626;SDS011;35527;54.616;39.786;2022-08-24T04:30:41;24.02;;;6.57;;
49626;SDS011;35527;54.616;39.786;2022-08-24T04:33:49;16.05;;;6.07;;
49626;SDS011;35527;54.616;39.786;2022-08-24T04:36:53;19.65;;;8.00;;
49626;SDS011;35527;54.616;39.786;2022-08-24T04:39:56;15.65;;;6.90;;
49626;SDS011;35527;54.616;39.786;2022-08-24T04:43:03;22.15;;;7.45;;
49626;SDS011;35527;54.616;39.786;2022-08-24T04:46:07;15.35;;;6.80;;
49626;SDS011;35527;54.616;39.786;2022-08-24T04:49:11;21.40;;;6.50;;
49626;SDS011;35527;54.616;39.786;2022-08-24T04:52:14;15.90;;;6.57;;
49626;SDS011;35527;54.616;39.786;2022-08-24T04:58:23;22.08;;;8.07;;
49626;SDS011;35527;54.616;39.786;2022-08-24T05:01:30;24.65;;;8.30;;
49626;SDS011;35527;54.616;39.786;2022-08-24T05:04:38;21.50;;;10.57;;
49626;SDS011;35527;54.616;39.786;2022-08-24T05:07:42;15.95;;;7.07;;
49626;SDS011;35527;54.616;39.786;2022-08-24T05:10:52;18.30;;;7.32;;
49626;SDS011;35527;54.616;39.786;2022-08-24T05:13:55;17.75;;;7.60;;
49626;SDS011;35527;54.616;39.786;2022-08-24T05:17:04;19.15;;;7.55;;
49626;SDS011;35527;54.616;39.786;2022-08-24T05:20:08;17.08;;;6.55;;
49626;SDS011;35527;54.616;39.786;2022-08-24T05:23:16;14.90;;;5.80;;
49626;SDS011;35527;54.616;39.786;2022-08-24T05:26:23;14.73;;;6.30;;
49626;SDS011;35527;54.616;39.786;2022-08-24T05:29:28;14.43;;;5.72;;
49626;SDS011;35527;54.616;39.786;2022-08-24T05:32:35;14.95;;;5.95;;
49626;SDS011;35527;54.616;39.786;2022-08-24T05:35:39;10.15;;;5.80;;
49626;SDS011;35527;54.616;39.786;2022-08-24T05:38:44;12.32;;;6.07;;
49626;SDS011;35527;54.616;39.786;2022-08-24T05:41:51;13.57;;;6.53;;
49626;SDS011;35527;54.616;39.786;2022-08-24T05:44:59;14.07;;;6.75;;
49626;SDS011;35527;54.616;39.786;2022-08-24T05:48:05;16.67;;;6.82;;
49626;SDS011;35527;54.616;39.786;2022-08-24T05:51:26;16.35;;;7.97;;
49626;SDS011;35527;54.616;39.786;2022-08-24T05:54:37;20.38;;;8.40;;
49626;SDS011;35527;54.616;39.786;2022-08-24T05:57:40;26.50;;;8.60;;
49626;SDS011;35527;54.616;39.786;2022-08-24T06:00:57;16.25;;;7.75;;
49626;SDS011;35527;54.616;39.786;2022-08-24T06:04:02;22.23;;;7.47;;
49626;SDS011;35527;54.616;39.786;2022-08-24T06:07:06;18.55;;;6.93;;
49626;SDS011;35527;54.616;39.786;2022-08-24T06:10:15;20.42;;;7.32;;
49626;SDS011;35527;54.616;39.786;2022-08-24T06:13:38;19.52;;;7.57;;
49626;SDS011;35527;54.616;39.786;2022-08-24T06:16:45;16.27;;;6.50;;
49626;SDS011;35527;54.616;39.786;2022-08-24T06:19:49;18.13;;;5.75;;
49626;SDS011;35527;54.616;39.786;2022-08-24T06:22:55;22.92;;;6.07;;
49626;SDS011;35527;54.616;39.786;2022-08-24T06:26:00;14.43;;;5.22;;
49626;SDS011;35527;54.616;39.786;2022-08-24T06:29:25;14.02;;;5.50;;
49626;SDS011;35527;54.616;39.786;2022-08-24T06:32:36;12.05;;;5.13;;
49626;SDS011;35527;54.616;39.786;2022-08-24T06:35:41;11.13;;;5.10;;
49626;SDS011;35527;54.616;39.786;2022-08-24T06:38:47;11.55;;;3.63;;
49626;SDS011;35527;54.616;39.786;2022-08-24T06:41:51;11.88;;;3.88;;
49626;SDS011;35527;54.616;39.786;2022-08-24T06:45:04;11.95;;;4.00;;
49626;SDS011;35527;54.616;39.786;2022-08-24T06:48:07;7.47;;;3.35;;
49626;SDS011;35527;54.616;39.786;2022-08-24T06:51:12;10.63;;;3.35;;
49626;SDS011;35527;54.616;39.786;2022-08-24T06:54:19;10.07;;;3.20;;
49626;SDS011;35527;54.616;39.786;2022-08-24T06:57:23;7.10;;;3.15;;
49626;SDS011;35527;54.616;39.786;2022-08-24T07:00:28;11.15;;;3.40;;
49626;SDS011;35527;54.616;39.786;2022-08-24T07:03:34;6.85;;;2.85;;
49626;SDS011;35527;54.616;39.786;2022-08-24T07:06:54;9.52;;;3.33;;
49626;SDS011;35527;54.616;39.786;2022-08-24T07:09:58;7.70;;;2.70;;
49626;SDS011;35527;54.616;39.786;2022-08-24T07:13:06;12.80;;;4.60;;
49626;SDS011;35527;54.616;39.786;2022-08-24T07:16:13;9.80;;;3.30;;
49626;SDS011;35527;54.616;39.786;2022-08-24T07:19:21;15.98;;;3.55;;
49626;SDS011;35527;54.616;39.786;2022-08-24T07:22:27;8.30;;;3.00;;
49626;SDS011;35527;54.616;39.786;2022-08-24T07:25:34;10.65;;;2.88;;
49626;SDS011;35527;54.616;39.786;2022-08-24T07:28:39;8.93;;;3.53;;
49626;SDS011;35527;54.616;39.786;2022-08-24T07:31:44;9.02;;;2.90;;
49626;SDS011;35527;54.616;39.786;2022-08-24T07:35:07;8.63;;;2.77;;
49626;SDS011;35527;54.616;39.786;2022-08-24T07:38:11;7.30;;;2.70;;
49626;SDS011;35527;54.616;39.786;2022-08-24T07:41:15;8.25;;;3.00;;
49626;SDS011;35527;54.616;39.786;2022-08-24T07:44:40;8.25;;;2.58;;
49626;SDS011;35527;54.616;39.786;2022-08-24T07:47:48;11.60;;;3.00;;
49626;SDS011;35527;54.616;39.786;2022-08-24T07:51:11;7.00;;;2.40;;
49626;SDS011;35527;54.616;39.786;2022-08-24T07:54:19;8.48;;;2.60;;
49626;SDS011;35527;54.616;39.786;2022-08-24T07:57:24;8.65;;;2.55;;
49626;SDS011;35527;54.616;39.786;2022-08-24T08:00:28;8.27;;;2.90;;
49626;SDS011;35527;54.616;39.786;2022-08-24T08:03:35;7.40;;;2.47;;
49626;SDS011;35527;54.616;39.786;2022-08-24T08:06:41;7.53;;;2.38;;
49626;SDS011;35527;54.616;39.786;2022-08-24T08:09:44;10.88;;;3.38;;
49626;SDS011;35527;54.616;39.786;2022-08-24T08:12:48;9.02;;;2.67;;
49626;SDS011;35527;54.616;39.786;2022-08-24T08:15:55;9.10;;;2.60;;
49626;SDS011;35527;54.616;39.786;2022-08-24T08:19:00;7.80;;;2.30;;
49626;SDS011;35527;54.616;39.786;2022-08-24T08:22:16;4.10;;;2.28;;
49626;SDS011;35527;54.616;39.786;2022-08-24T08:25:59;7.35;;;2.58;;
49626;SDS011;35527;54.616;39.786;2022-08-24T08:29:22;8.20;;;3.00;;
49626;SDS011;35527;54.616;39.786;2022-08-24T08:32:27;5.82;;;2.40;;
49626;SDS011;35527;54.616;39.786;2022-08-24T08:35:33;5.75;;;2.10;;
49626;SDS011;35527;54.616;39.786;2022-08-24T08:38:38;3.95;;;2.05;;
49626;SDS011;35527;54.616;39.786;2022-08-24T08:49:02;5.80;;;2.00;;
49626;SDS011;35527;54.616;39.786;2022-08-24T08:59:21;6.93;;;2.30;;
49626;SDS011;35527;54.616;39.786;2022-08-24T09:24:02;5.85;;;2.60;;
49626;SDS011;35527;54.616;39.786;2022-08-24T09:27:36;6.25;;;2.70;;
49626;SDS011;35527;54.616;39.786;2022-08-24T09:34:15;5.70;;;2.85;;
49626;SDS011;35527;54.616;39.786;2022-08-24T10:04:48;6.47;;;3.03;;
49626;SDS011;35527;54.616;39.786;2022-08-24T10:32:05;6.72;;;2.83;;
49626;SDS011;35527;54.616;39.786;2022-08-24T10:35:20;6.28;;;2.80;;
49626;SDS011;35527;54.616;39.786;2022-08-24T10:45:47;8.43;;;3.08;;
49626;SDS011;35527;54.616;39.786;2022-08-24T10:49:10;6.90;;;3.10;;
49626;SDS011;35527;54.616;39.786;2022-08-24T10:55:56;5.75;;;3.17;;
49626;SDS011;35527;54.616;39.786;2022-08-24T11:03:11;6.90;;;2.92;;
49626;SDS011;35527;54.616;39.786;2022-08-24T11:06:18;7.03;;;2.80;;
49626;SDS011;35527;54.616;39.786;2022-08-24T11:09:23;7.05;;;3.10;;
49626;SDS011;35527;54.616;39.786;2022-08-24T11:12:52;5.10;;;2.60;;
49626;SDS011;35527;54.616;39.786;2022-08-24T11:15:57;6.72;;;2.90;;
49626;SDS011;35527;54.616;39.786;2022-08-24T11:19:09;10.38;;;3.00;;
49626;SDS011;35527;54.616;39.786;2022-08-24T11:22:36;4.95;;;2.80;;
49626;SDS011;35527;54.616;39.786;2022-08-24T11:26:05;5.13;;;2.60;;
49626;SDS011;35527;54.616;39.786;2022-08-24T11:29:13;8.57;;;2.53;;
49626;SDS011;35527;54.616;39.786;2022-08-24T11:39:12;7.90;;;2.70;;
49626;SDS011;35527;54.616;39.786;2022-08-24T11:42:38;7.05;;;2.92;;
49626;SDS011;35527;54.616;39.786;2022-08-24T12:05:58;5.70;;;2.70;;
49626;SDS011;35527;54.616;39.786;2022-08-24T12:12:36;9.18;;;3.05;;
49626;SDS011;35527;54.616;39.786;2022-08-24T12:19:12;5.38;;;2.67;;
49626;SDS011;35527;54.616;39.786;2022-08-24T12:22:20;6.00;;;2.95;;
49626;SDS011;35527;54.616;39.786;2022-08-24T12:25:30;5.55;;;2.95;;
49626;SDS011;35527;54.616;39.786;2022-08-24T12:28:58;6.18;;;3.10;;
49626;SDS011;35527;54.616;39.786;2022-08-24T12:35:45;6.22;;;2.78;;
49626;SDS011;35527;54.616;39.786;2022-08-24T12:39:20;6.50;;;2.80;;
49626;SDS011;35527;54.616;39.786;2022-08-24T12:42:28;5.18;;;2.90;;
49626;SDS011;35527;54.616;39.786;2022-08-24T12:45:35;7.78;;;2.55;;
49626;SDS011;35527;54.616;39.786;2022-08-24T12:48:59;6.07;;;3.05;;
49626;SDS011;35527;54.616;39.786;2022-08-24T12:52:28;8.05;;;3.17;;
49626;SDS011;35527;54.616;39.786;2022-08-24T13:06:39;9.70;;;3.70;;
49626;SDS011;35527;54.616;39.786;2022-08-24T13:13:19;7.15;;;3.35;;
49626;SDS011;35527;54.616;39.786;2022-08-24T13:23:39;7.93;;;3.00;;
49626;SDS011;35527;54.616;39.786;2022-08-24T13:26:44;6.57;;;3.00;;
49626;SDS011;35527;54.616;39.786;2022-08-24T13:29:51;8.30;;;3.05;;
49626;SDS011;35527;54.616;39.786;2022-08-24T13:33:09;6.40;;;2.83;;
49626;SDS011;35527;54.616;39.786;2022-08-24T14:03:11;7.63;;;3.42;;
49626;SDS011;35527;54.616;39.786;2022-08-24T14:12:56;7.70;;;3.38;;
49626;SDS011;35527;54.616;39.786;2022-08-24T14:30:03;7.50;;;3.35;;
49626;SDS011;35527;54.616;39.786;2022-08-24T14:54:05;5.40;;;3.40;;
49626;SDS011;35527;54.616;39.786;2022-08-24T15:04:08;9.63;;;3.65;;
49626;SDS011;35527;54.616;39.786;2022-08-24T15:07:30;6.95;;;3.70;;
49626;SDS011;35527;54.616;39.786;2022-08-24T15:10:54;7.68;;;4.43;;
49626;SDS011;35527;54.616;39.786;2022-08-24T15:14:02;6.03;;;3.50;;
49626;SDS011;35527;54.616;39.786;2022-08-24T15:17:14;5.70;;;3.15;;
49626;SDS011;35527;54.616;39.786;2022-08-24T15:20:41;7.18;;;3.50;;
49626;SDS011;35527;54.616;39.786;2022-08-24T15:33:29;10.13;;;4.00;;
49626;SDS011;35527;54.616;39.786;2022-08-24T15:36:37;22.13;;;5.70;;
49626;SDS011;35527;54.616;39.786;2022-08-24T15:39:40;19.92;;;6.15;;
49626;SDS011;35527;54.616;39.786;2022-08-24T15:42:46;17.73;;;5.57;;
49626;SDS011;35527;54.616;39.786;2022-08-24T15:45:55;20.33;;;5.00;;
49626;SDS011;35527;54.616;39.786;2022-08-24T15:49:34;15.07;;;4.40;;
49626;SDS011;35527;54.616;39.786;2022-08-24T15:55:43;11.77;;;4.43;;
49626;SDS011;35527;54.616;39.786;2022-08-24T15:58:51;11.95;;;5.55;;
49626;SDS011;35527;54.616;39.786;2022-08-24T16:08:49;11.55;;;5.50;;
49626;SDS011;35527;54.616;39.786;2022-08-24T16:12:04;13.55;;;5.25;;
49626;SDS011;35527;54.616;39.786;2022-08-24T16:15:16;11.82;;;4.43;;
49626;SDS011;35527;54.616;39.786;2022-08-24T16:18:20;12.40;;;4.82;;
49626;SDS011;35527;54.616;39.786;2022-08-24T16:34:44;9.60;;;4.45;;
49626;SDS011;35527;54.616;39.786;2022-08-24T16:37:55;7.47;;;4.40;;
49626;SDS011;35527;54.616;39.786;2022-08-24T16:41:01;8.93;;;4.78;;
49626;SDS011;35527;54.616;39.786;2022-08-24T16:44:07;11.60;;;5.10;;
49626;SDS011;35527;54.616;39.786;2022-08-24T16:47:12;11.98;;;5.88;;
49626;SDS011;35527;54.616;39.786;2022-08-24T16:50:18;11.83;;;6.20;;
49626;SDS011;35527;54.616;39.786;2022-08-24T16:53:23;11.25;;;5.15;;
49626;SDS011;35527;54.616;39.786;2022-08-24T16:56:27;10.30;;;4.43;;
49626;SDS011;35527;54.616;39.786;2022-08-24T16:59:32;18.20;;;5.00;;
49626;SDS011;35527;54.616;39.786;2022-08-24T17:02:37;14.57;;;4.70;;
49626;SDS011;35527;54.616;39.786;2022-08-24T17:05:41;8.65;;;4.50;;
49626;SDS011;35527;54.616;39.786;2022-08-24T17:08:45;9.73;;;4.07;;
49626;SDS011;35527;54.616;39.786;2022-08-24T17:11:49;22.02;;;7.47;;
49626;SDS011;35527;54.616;39.786;2022-08-24T17:14:56;15.07;;;5.97;;
49626;SDS011;35527;54.616;39.786;2022-08-24T17:18:04;22.77;;;7.97;;
49626;SDS011;35527;54.616;39.786;2022-08-24T17:21:11;21.10;;;7.70;;
49626;SDS011;35527;54.616;39.786;2022-08-24T17:24:17;23.00;;;8.03;;
49626;SDS011;35527;54.616;39.786;2022-08-24T17:27:27;13.85;;;7.80;;
49626;SDS011;35527;54.616;39.786;2022-08-24T17:30:32;19.95;;;6.68;;
49626;SDS011;35527;54.616;39.786;2022-08-24T17:33:37;16.80;;;6.18;;
49626;SDS011;35527;54.616;39.786;2022-08-24T17:39:50;15.38;;;6.47;;
49626;SDS011;35527;54.616;39.786;2022-08-24T17:42:58;16.13;;;8.13;;
49626;SDS011;35527;54.616;39.786;2022-08-24T17:46:04;7.80;;;3.67;;
49626;SDS011;35527;54.616;39.786;2022-08-24T17:49:08;9.93;;;3.67;;
49626;SDS011;35527;54.616;39.786;2022-08-24T17:52:14;7.10;;;3.75;;
49626;SDS011;35527;54.616;39.786;2022-08-24T17:55:17;8.20;;;3.40;;
49626;SDS011;35527;54.616;39.786;2022-08-24T17:58:20;6.32;;;3.72;;
49626;SDS011;35527;54.616;39.786;2022-08-24T18:01:24;10.00;;;4.07;;
49626;SDS011;35527;54.616;39.786;2022-08-24T18:04:29;17.50;;;5.38;;
49626;SDS011;35527;54.616;39.786;2022-08-24T18:07:37;10.15;;;4.80;;
49626;SDS011;35527;54.616;39.786;2022-08-24T18:10:53;10.05;;;4.75;;
49626;SDS011;35527;54.616;39.786;2022-08-24T18:13:57;9.13;;;4.72;;
49626;SDS011;35527;54.616;39.786;2022-08-24T18:17:05;12.60;;;4.35;;
49626;SDS011;35527;54.616;39.786;2022-08-24T18:20:13;7.90;;;4.13;;
49626;SDS011;35527;54.616;39.786;2022-08-24T18:23:17;9.48;;;4.50;;
49626;SDS011;35527;54.616;39.786;2022-08-24T18:26:25;8.73;;;3.80;;
49626;SDS011;35527;54.616;39.786;2022-08-24T18:29:33;12.32;;;5.20;;
49626;SDS011;35527;54.616;39.786;2022-08-24T18:32:36;10.57;;;5.00;;
49626;SDS011;35527;54.616;39.786;2022-08-24T18:35:41;12.48;;;5.80;;
49626;SDS011;35527;54.616;39.786;2022-08-24T18:38:45;9.82;;;4.90;;
49626;SDS011;35527;54.616;39.786;2022-08-24T18:41:51;11.45;;;4.93;;
49626;SDS011;35527;54.616;39.786;2022-08-24T18:44:58;13.23;;;5.50;;
49626;SDS011;35527;54.616;39.786;2022-08-24T18:48:03;8.80;;;4.43;;
49626;SDS011;35527;54.616;39.786;2022-08-24T18:51:10;9.15;;;4.45;;
49626;SDS011;35527;54.616;39.786;2022-08-24T18:57:49;10.00;;;3.90;;
49626;SDS011;35527;54.616;39.786;2022-08-24T19:01:19;11.02;;;4.03;;
49626;SDS011;35527;54.616;39.786;2022-08-24T19:04:28;14.73;;;5.45;;
49626;SDS011;35527;54.616;39.786;2022-08-24T19:07:33;7.75;;;3.78;;
49626;SDS011;35527;54.616;39.786;2022-08-24T19:10:42;7.95;;;3.85;;
49626;SDS011;35527;54.616;39.786;2022-08-24T19:13:48;9.05;;;3.88;;
49626;SDS011;35527;54.616;39.786;2022-08-24T19:16:57;6.85;;;3.83;;
49626;SDS011;35527;54.616;39.786;2022-08-24T19:20:00;7.72;;;3.83;;
49626;SDS011;35527;54.616;39.786;2022-08-24T19:23:09;8.70;;;3.65;;
49626;SDS011;35527;54.616;39.786;2022-08-24T19:26:17;8.55;;;3.70;;
49626;SDS011;35527;54.616;39.786;2022-08-24T19:29:23;6.18;;;4.00;;
49626;SDS011;35527;54.616;39.786;2022-08-24T19:32:41;7.63;;;3.80;;
49626;SDS011;35527;54.616;39.786;2022-08-24T19:35:47;6.13;;;3.47;;
49626;SDS011;35527;54.616;39.786;2022-08-24T19:38:54;6.22;;;4.00;;
49626;SDS011;35527;54.616;39.786;2022-08-24T19:41:58;6.88;;;3.50;;
49626;SDS011;35527;54.616;39.786;2022-08-24T19:45:02;6.67;;;3.27;;
49626;SDS011;35527;54.616;39.786;2022-08-24T19:48:26;6.30;;;3.63;;
49626;SDS011;35527;54.616;39.786;2022-08-24T19:51:31;6.63;;;3.70;;
49626;SDS011;35527;54.616;39.786;2022-08-24T19:54:42;8.43;;;3.87;;
49626;SDS011;35527;54.616;39.786;2022-08-24T19:57:48;6.57;;;3.58;;
49626;SDS011;35527;54.616;39.786;2022-08-24T20:00:56;7.05;;;3.67;;
49626;SDS011;35527;54.616;39.786;2022-08-24T20:04:29;11.82;;;7.13;;
49626;SDS011;35527;54.616;39.786;2022-08-24T20:07:33;23.03;;;9.07;;
49626;SDS011;35527;54.616;39.786;2022-08-24T20:10:37;22.38;;;8.32;;
49626;SDS011;35527;54.616;39.786;2022-08-24T20:13:40;17.60;;;8.43;;
49626;SDS011;35527;54.616;39.786;2022-08-24T20:16:44;28.10;;;8.18;;
49626;SDS011;35527;54.616;39.786;2022-08-24T20:22:57;11.50;;;6.03;;
49626;SDS011;35527;54.616;39.786;2022-08-24T20:26:05;6.35;;;3.90;;
49626;SDS011;35527;54.616;39.786;2022-08-24T20:29:09;7.80;;;3.78;;
49626;SDS011;35527;54.616;39.786;2022-08-24T20:32:17;10.85;;;4.30;;
49626;SDS011;35527;54.616;39.786;2022-08-24T20:35:25;8.05;;;4.25;;
49626;SDS011;35527;54.616;39.786;2022-08-24T20:38:30;10.88;;;4.32;;
49626;SDS011;35527;54.616;39.786;2022-08-24T20:41:35;9.68;;;3.90;;
49626;SDS011;35527;54.616;39.786;2022-08-24T20:44:40;10.82;;;3.75;;
49626;SDS011;35527;54.616;39.786;2022-08-24T20:47:47;11.23;;;4.05;;
49626;SDS011;35527;54.616;39.786;2022-08-24T20:50:56;8.10;;;3.72;;
49626;SDS011;35527;54.616;39.786;2022-08-24T20:54:03;8.20;;;3.85;;
49626;SDS011;35527;54.616;39.786;2022-08-24T20:57:17;8.15;;;3.70;;
49626;SDS011;35527;54.616;39.786;2022-08-24T21:00:21;22.45;;;8.80;;
49626;SDS011;35527;54.616;39.786;2022-08-24T21:03:25;18.20;;;7.97;;
49626;SDS011;35527;54.616;39.786;2022-08-24T21:06:29;6.22;;;4.38;;
49626;SDS011;35527;54.616;39.786;2022-08-24T21:09:37;7.72;;;4.20;;
49626;SDS011;35527;54.616;39.786;2022-08-24T21:15:46;10.55;;;4.55;;
49626;SDS011;35527;54.616;39.786;2022-08-24T21:18:49;7.57;;;3.72;;
49626;SDS011;35527;54.616;39.786;2022-08-24T21:21:56;13.07;;;5.43;;
49626;SDS011;35527;54.616;39.786;2022-08-24T21:25:00;12.15;;;7.15;;
49626;SDS011;35527;54.616;39.786;2022-08-24T21:28:05;20.30;;;8.95;;
49626;SDS011;35527;54.616;39.786;2022-08-24T21:31:10;7.38;;;4.30;;
49626;SDS011;35527;54.616;39.786;2022-08-24T21:34:16;7.25;;;4.43;;
49626;SDS011;35527;54.616;39.786;2022-08-24T21:37:37;9.00;;;4.03;;
49626;SDS011;35527;54.616;39.786;2022-08-24T21:40:41;10.70;;;4.22;;
49626;SDS011;35527;54.616;39.786;2022-08-24T21:43:45;6.07;;;3.80;;
49626;SDS011;35527;54.616;39.786;2022-08-24T21:46:52;9.07;;;4.22;;
49626;SDS011;35527;54.616;39.786;2022-08-24T21:49:55;8.35;;;4.47;;
49626;SDS011;35527;54.616;39.786;2022-08-24T21:53:26;9.32;;;4.43;;
49626;SDS011;35527;54.616;39.786;2022-08-24T21:56:29;7.85;;;4.80;;
49626;SDS011;35527;54.616;39.786;2022-08-24T21:59:40;10.13;;;5.10;;
49626;SDS011;35527;54.616;39.786;2022-08-24T22:02:45;10.00;;;5.80;;
49626;SDS011;35527;54.616;39.786;2022-08-24T22:05:50;11.40;;;6.95;;
49626;SDS011;35527;54.616;39.786;2022-08-24T22:08:56;24.13;;;8.60;;
49626;SDS011;35527;54.616;39.786;2022-08-24T22:12:01;23.35;;;8.23;;
49626;SDS011;35527;54.616;39.786;2022-08-24T22:15:10;16.60;;;6.63;;
49626;SDS011;35527;54.616;39.786;2022-08-24T22:18:15;13.57;;;6.70;;
49626;SDS011;35527;54.616;39.786;2022-08-24T22:21:22;14.10;;;5.60;;
49626;SDS011;35527;54.616;39.786;2022-08-24T22:24:33;15.13;;;6.13;;
49626;SDS011;35527;54.616;39.786;2022-08-24T22:27:39;22.85;;;7.10;;
49626;SDS011;35527;54.616;39.786;2022-08-24T22:30:46;25.48;;;12.07;;
49626;SDS011;35527;54.616;39.786;2022-08-24T22:33:49;20.58;;;6.35;;
49626;SDS011;35527;54.616;39.786;2022-08-24T22:36:57;16.08;;;5.75;;
49626;SDS011;35527;54.616;39.786;2022-08-24T22:40:06;13.88;;;6.07;;
49626;SDS011;35527;54.616;39.786;2022-08-24T22:43:10;16.80;;;6.07;;
49626;SDS011;35527;54.616;39.786;2022-08-24T22:46:13;10.25;;;5.57;;
49626;SDS011;35527;54.616;39.786;2022-08-24T22:49:19;11.88;;;6.20;;
49626;SDS011;35527;54.616;39.786;2022-08-24T22:52:25;15.32;;;6.18;;
49626;SDS011;35527;54.616;39.786;2022-08-24T22:55:30;12.10;;;6.40;;
49626;SDS011;35527;54.616;39.786;2022-08-24T22:58:36;13.32;;;6.82;;
49626;SDS011;35527;54.616;39.786;2022-08-24T23:01:41;11.15;;;6.50;;
49626;SDS011;35527;54.616;39.786;2022-08-24T23:04:46;13.40;;;6.75;;
49626;SDS011;35527;54.616;39.786;2022-08-24T23:07:51;10.60;;;6.53;;
49626;SDS011;35527;54.616;39.786;2022-08-24T23:10:54;11.85;;;7.10;;
49626;SDS011;35527;54.616;39.786;2022-08-24T23:13:59;9.13;;;7.05;;
49626;SDS011;35527;54.616;39.786;2022-08-24T23:17:04;12.90;;;8.00;;
49626;SDS011;35527;54.616;39.786;2022-08-24T23:20:08;23.75;;;8.88;;
49626;SDS011;35527;54.616;39.786;2022-08-24T23:23:11;13.55;;;7.82;;
49626;SDS011;35527;54.616;39.786;2022-08-24T23:26:17;13.90;;;7.50;;
49626;SDS011;35527;54.616;39.786;2022-08-24T23:29:22;12.45;;;7.90;;